sensor_id;sensor_type;location;lat;lon;timestamp;temperature;humidity
20750;DHT22;10535;50.664;4.564;2024-02-21T00:00:57;10.20;99.90
20750;DHT22;10535;50.664;4.564;2024-02-21T00:03:24;10.10;99.90
20750;DHT22;10535;50.664;4.564;2024-02-21T00:05:49;10.00;99.90
20750;DHT22;10535;50.664;4.564;2024-02-21T00:08:15;9.90;99.90
20750;DHT22;10535;50.664;4.564;2024-02-21T00:10:41;9.80;99.90
20750;DHT22;10535;50.664;4.564;2024-02-21T00:13:06;9.80;99.90
20750;DHT22;10535;50.664;4.564;2024-02-21T00:15:32;9.80;99.90
20750;DHT22;10535;50.664;4.564;2024-02-21T00:17:58;9.70;99.90
20750;DHT22;10535;50.664;4.564;2024-02-21T00:20:23;9.70;99.90
20750;DHT22;10535;50.664;4.564;2024-02-21T00:22:51;9.80;99.90
20750;DHT22;10535;50.664;4.564;2024-02-21T00:25:16;9.80;99.90
20750;DHT22;10535;50.664;4.564;2024-02-21T00:27:43;9.80;99.90
20750;DHT22;10535;50.664;4.564;2024-02-21T00:30:12;9.70;99.90
20750;DHT22;10535;50.664;4.564;2024-02-21T00:32:38;9.90;99.90
20750;DHT22;10535;50.664;4.564;2024-02-21T00:35:04;10.00;99.90
20750;DHT22;10535;50.664;4.564;2024-02-21T00:37:31;10.00;99.90
20750;DHT22;10535;50.664;4.564;2024-02-21T00:39:57;10.10;99.90
20750;DHT22;10535;50.664;4.564;2024-02-21T00:42:24;9.90;99.90
20750;DHT22;10535;50.664;4.564;2024-02-21T00:44:49;9.80;99.90
20750;DHT22;10535;50.664;4.564;2024-02-21T00:47:15;9.90;99.90
20750;DHT22;10535;50.664;4.564;2024-02-21T00:49:41;9.90;99.90
20750;DHT22;10535;50.664;4.564;2024-02-21T00:52:11;10.00;99.90
20750;DHT22;10535;50.664;4.564;2024-02-21T00:54:37;9.80;99.90
20750;DHT22;10535;50.664;4.564;2024-02-21T00:57:02;9.80;99.90
20750;DHT22;10535;50.664;4.564;2024-02-21T00:59:29;9.70;99.90
20750;DHT22;10535;50.664;4.564;2024-02-21T01:01:55;9.70;99.90
20750;DHT22;10535;50.664;4.564;2024-02-21T01:04:21;9.70;99.90
20750;DHT22;10535;50.664;4.564;2024-02-21T01:06:46;9.80;99.90
20750;DHT22;10535;50.664;4.564;2024-02-21T01:09:12;9.80;99.90
20750;DHT22;10535;50.664;4.564;2024-02-21T01:11:37;9.80;99.90
20750;DHT22;10535;50.664;4.564;2024-02-21T01:14:03;9.70;99.90
20750;DHT22;10535;50.664;4.564;2024-02-21T01:16:29;9.80;99.90
20750;DHT22;10535;50.664;4.564;2024-02-21T01:18:54;9.90;99.90
20750;DHT22;10535;50.664;4.564;2024-02-21T01:21:20;9.90;99.90
20750;DHT22;10535;50.664;4.564;2024-02-21T01:23:46;9.70;99.90
20750;DHT22;10535;50.664;4.564;2024-02-21T01:26:11;9.80;99.90
20750;DHT22;10535;50.664;4.564;2024-02-21T01:28:39;9.90;99.90
20750;DHT22;10535;50.664;4.564;2024-02-21T01:31:05;9.80;99.90
20750;DHT22;10535;50.664;4.564;2024-02-21T01:33:31;9.90;99.90
20750;DHT22;10535;50.664;4.564;2024-02-21T01:36:01;10.00;99.90
20750;DHT22;10535;50.664;4.564;2024-02-21T01:38:28;9.80;99.90
20750;DHT22;10535;50.664;4.564;2024-02-21T01:40:53;9.70;99.90
20750;DHT22;10535;50.664;4.564;2024-02-21T01:43:20;9.70;99.90
20750;DHT22;10535;50.664;4.564;2024-02-21T01:45:49;9.70;99.90
20750;DHT22;10535;50.664;4.564;2024-02-21T01:48:17;9.70;99.90
20750;DHT22;10535;50.664;4.564;2024-02-21T01:50:44;9.60;99.90
20750;DHT22;10535;50.664;4.564;2024-02-21T01:53:10;9.60;99.90
20750;DHT22;10535;50.664;4.564;2024-02-21T01:55:45;9.70;99.90
20750;DHT22;10535;50.664;4.564;2024-02-21T01:58:12;9.70;99.90
20750;DHT22;10535;50.664;4.564;2024-02-21T02:00:41;9.80;99.90
20750;DHT22;10535;50.664;4.564;2024-02-21T02:03:09;9.50;99.90
20750;DHT22;10535;50.664;4.564;2024-02-21T02:05:44;9.40;99.90
20750;DHT22;10535;50.664;4.564;2024-02-21T02:08:10;9.40;99.90
20750;DHT22;10535;50.664;4.564;2024-02-21T02:10:37;9.60;99.90
20750;DHT22;10535;50.664;4.564;2024-02-21T02:13:02;9.70;99.90
20750;DHT22;10535;50.664;4.564;2024-02-21T02:15:44;9.70;99.90
20750;DHT22;10535;50.664;4.564;2024-02-21T02:18:14;9.70;99.90
20750;DHT22;10535;50.664;4.564;2024-02-21T02:20:40;9.50;99.90
20750;DHT22;10535;50.664;4.564;2024-02-21T02:25:45;9.40;99.90
20750;DHT22;10535;50.664;4.564;2024-02-21T02:28:14;9.40;99.90
20750;DHT22;10535;50.664;4.564;2024-02-21T02:30:40;9.60;99.90
20750;DHT22;10535;50.664;4.564;2024-02-21T02:33:06;9.60;99.90
20750;DHT22;10535;50.664;4.564;2024-02-21T02:35:32;9.50;99.90
20750;DHT22;10535;50.664;4.564;2024-02-21T02:38:00;9.50;99.90
20750;DHT22;10535;50.664;4.564;2024-02-21T02:40:26;9.60;99.90
20750;DHT22;10535;50.664;4.564;2024-02-21T02:42:52;9.70;99.90
20750;DHT22;10535;50.664;4.564;2024-02-21T02:45:21;9.80;99.90
20750;DHT22;10535;50.664;4.564;2024-02-21T02:47:47;9.80;99.90
20750;DHT22;10535;50.664;4.564;2024-02-21T02:50:14;9.70;99.90
20750;DHT22;10535;50.664;4.564;2024-02-21T02:52:39;9.80;99.90
20750;DHT22;10535;50.664;4.564;2024-02-21T02:55:05;10.00;99.90
20750;DHT22;10535;50.664;4.564;2024-02-21T02:57:32;10.00;99.90
20750;DHT22;10535;50.664;4.564;2024-02-21T02:59:57;9.90;99.90
20750;DHT22;10535;50.664;4.564;2024-02-21T03:02:23;9.70;99.90
20750;DHT22;10535;50.664;4.564;2024-02-21T03:04:49;9.70;99.90
20750;DHT22;10535;50.664;4.564;2024-02-21T03:07:15;9.60;99.90
20750;DHT22;10535;50.664;4.564;2024-02-21T03:09:41;9.50;99.90
20750;DHT22;10535;50.664;4.564;2024-02-21T03:12:08;9.70;99.90
20750;DHT22;10535;50.664;4.564;2024-02-21T03:14:34;9.60;99.90
20750;DHT22;10535;50.664;4.564;2024-02-21T03:17:01;9.80;99.90
20750;DHT22;10535;50.664;4.564;2024-02-21T03:19:27;10.00;99.90
20750;DHT22;10535;50.664;4.564;2024-02-21T03:21:53;9.80;99.90
20750;DHT22;10535;50.664;4.564;2024-02-21T03:24:19;9.80;99.90
20750;DHT22;10535;50.664;4.564;2024-02-21T03:26:45;9.90;99.90
20750;DHT22;10535;50.664;4.564;2024-02-21T03:29:15;9.80;99.90
20750;DHT22;10535;50.664;4.564;2024-02-21T03:31:41;9.80;99.90
20750;DHT22;10535;50.664;4.564;2024-02-21T03:34:07;9.80;99.90
20750;DHT22;10535;50.664;4.564;2024-02-21T03:36:33;9.90;99.90
20750;DHT22;10535;50.664;4.564;2024-02-21T03:38:58;9.70;99.90
20750;DHT22;10535;50.664;4.564;2024-02-21T03:41:24;9.70;99.90
20750;DHT22;10535;50.664;4.564;2024-02-21T03:43:50;9.80;99.90
20750;DHT22;10535;50.664;4.564;2024-02-21T03:46:15;9.80;99.90
20750;DHT22;10535;50.664;4.564;2024-02-21T03:48:41;9.90;99.90
20750;DHT22;10535;50.664;4.564;2024-02-21T03:51:07;9.90;99.90
20750;DHT22;10535;50.664;4.564;2024-02-21T03:53:33;9.80;99.90
20750;DHT22;10535;50.664;4.564;2024-02-21T03:56:01;9.80;99.90
20750;DHT22;10535;50.664;4.564;2024-02-21T03:58:29;9.80;99.90
20750;DHT22;10535;50.664;4.564;2024-02-21T04:00:55;9.80;99.90
20750;DHT22;10535;50.664;4.564;2024-02-21T04:03:20;9.80;99.90
20750;DHT22;10535;50.664;4.564;2024-02-21T04:05:46;9.90;99.90
20750;DHT22;10535;50.664;4.564;2024-02-21T04:08:12;9.80;99.90
20750;DHT22;10535;50.664;4.564;2024-02-21T04:10:37;9.70;99.90
20750;DHT22;10535;50.664;4.564;2024-02-21T04:13:05;9.80;99.90
20750;DHT22;10535;50.664;4.564;2024-02-21T04:15:31;9.70;99.90
20750;DHT22;10535;50.664;4.564;2024-02-21T04:17:58;9.80;99.90
20750;DHT22;10535;50.664;4.564;2024-02-21T04:20:24;9.80;99.90
20750;DHT22;10535;50.664;4.564;2024-02-21T04:22:49;9.60;99.90
20750;DHT22;10535;50.664;4.564;2024-02-21T04:25:15;9.60;99.90
20750;DHT22;10535;50.664;4.564;2024-02-21T04:27:41;9.70;99.90
20750;DHT22;10535;50.664;4.564;2024-02-21T04:30:07;9.90;99.90
20750;DHT22;10535;50.664;4.564;2024-02-21T04:32:33;9.90;99.90
20750;DHT22;10535;50.664;4.564;2024-02-21T04:34:59;10.00;99.90
20750;DHT22;10535;50.664;4.564;2024-02-21T04:37:24;10.10;99.90
20750;DHT22;10535;50.664;4.564;2024-02-21T04:39:50;9.90;99.90
20750;DHT22;10535;50.664;4.564;2024-02-21T04:42:16;9.80;99.90
20750;DHT22;10535;50.664;4.564;2024-02-21T04:44:42;9.70;99.90
20750;DHT22;10535;50.664;4.564;2024-02-21T04:47:07;9.80;99.90
20750;DHT22;10535;50.664;4.564;2024-02-21T04:49:33;9.70;99.90
20750;DHT22;10535;50.664;4.564;2024-02-21T04:51:59;9.80;99.90
20750;DHT22;10535;50.664;4.564;2024-02-21T04:54:25;9.80;99.90
20750;DHT22;10535;50.664;4.564;2024-02-21T04:56:51;9.80;99.90
20750;DHT22;10535;50.664;4.564;2024-02-21T04:59:17;9.70;99.90
20750;DHT22;10535;50.664;4.564;2024-02-21T05:01:42;9.60;99.90
20750;DHT22;10535;50.664;4.564;2024-02-21T05:04:08;9.50;99.90
20750;DHT22;10535;50.664;4.564;2024-02-21T05:06:38;9.70;99.90
20750;DHT22;10535;50.664;4.564;2024-02-21T05:09:09;9.70;99.90
20750;DHT22;10535;50.664;4.564;2024-02-21T05:11:38;9.80;99.90
20750;DHT22;10535;50.664;4.564;2024-02-21T05:14:04;9.80;99.90
20750;DHT22;10535;50.664;4.564;2024-02-21T05:16:30;9.60;99.90
20750;DHT22;10535;50.664;4.564;2024-02-21T05:18:56;9.60;99.90
20750;DHT22;10535;50.664;4.564;2024-02-21T05:21:26;9.60;99.90
20750;DHT22;10535;50.664;4.564;2024-02-21T05:23:53;9.80;99.90
20750;DHT22;10535;50.664;4.564;2024-02-21T05:26:23;9.80;99.90
20750;DHT22;10535;50.664;4.564;2024-02-21T05:28:49;9.90;99.90
20750;DHT22;10535;50.664;4.564;2024-02-21T05:31:18;9.80;99.90
20750;DHT22;10535;50.664;4.564;2024-02-21T05:33:44;9.70;99.90
20750;DHT22;10535;50.664;4.564;2024-02-21T05:36:10;9.80;99.90
20750;DHT22;10535;50.664;4.564;2024-02-21T05:38:36;9.80;99.90
20750;DHT22;10535;50.664;4.564;2024-02-21T05:41:02;9.90;99.90
20750;DHT22;10535;50.664;4.564;2024-02-21T05:43:28;9.70;99.90
20750;DHT22;10535;50.664;4.564;2024-02-21T05:45:54;9.70;99.90
20750;DHT22;10535;50.664;4.564;2024-02-21T05:48:22;9.70;99.90
20750;DHT22;10535;50.664;4.564;2024-02-21T05:50:48;9.50;99.90
20750;DHT22;10535;50.664;4.564;2024-02-21T05:53:13;9.70;99.90
20750;DHT22;10535;50.664;4.564;2024-02-21T05:55:39;9.70;99.90
20750;DHT22;10535;50.664;4.564;2024-02-21T05:58:05;9.70;99.90
20750;DHT22;10535;50.664;4.564;2024-02-21T06:00:31;9.80;99.90
20750;DHT22;10535;50.664;4.564;2024-02-21T06:02:57;9.80;99.90
20750;DHT22;10535;50.664;4.564;2024-02-21T06:05:23;9.80;99.90
20750;DHT22;10535;50.664;4.564;2024-02-21T06:07:48;9.80;99.90
20750;DHT22;10535;50.664;4.564;2024-02-21T06:10:14;9.80;99.90
20750;DHT22;10535;50.664;4.564;2024-02-21T06:12:40;9.70;99.90
20750;DHT22;10535;50.664;4.564;2024-02-21T06:15:06;9.70;99.90
20750;DHT22;10535;50.664;4.564;2024-02-21T06:17:32;9.60;99.90
20750;DHT22;10535;50.664;4.564;2024-02-21T06:19:57;9.50;99.90
20750;DHT22;10535;50.664;4.564;2024-02-21T06:22:23;9.50;99.90
20750;DHT22;10535;50.664;4.564;2024-02-21T06:24:48;9.50;99.90
20750;DHT22;10535;50.664;4.564;2024-02-21T06:27:15;9.40;99.90
20750;DHT22;10535;50.664;4.564;2024-02-21T06:29:41;9.40;99.90
20750;DHT22;10535;50.664;4.564;2024-02-21T06:32:07;9.40;99.90
20750;DHT22;10535;50.664;4.564;2024-02-21T06:34:33;9.40;99.90
20750;DHT22;10535;50.664;4.564;2024-02-21T06:36:58;9.50;99.90
20750;DHT22;10535;50.664;4.564;2024-02-21T06:39:24;9.50;99.90
20750;DHT22;10535;50.664;4.564;2024-02-21T06:41:50;9.30;99.90
20750;DHT22;10535;50.664;4.564;2024-02-21T06:44:19;9.10;99.90
20750;DHT22;10535;50.664;4.564;2024-02-21T06:46:45;9.30;99.90
20750;DHT22;10535;50.664;4.564;2024-02-21T06:49:10;9.50;99.90
20750;DHT22;10535;50.664;4.564;2024-02-21T06:51:42;9.30;99.90
20750;DHT22;10535;50.664;4.564;2024-02-21T06:54:08;9.30;99.90
20750;DHT22;10535;50.664;4.564;2024-02-21T06:56:35;9.30;99.90
20750;DHT22;10535;50.664;4.564;2024-02-21T06:59:01;9.30;99.90
20750;DHT22;10535;50.664;4.564;2024-02-21T07:01:29;9.20;99.90
20750;DHT22;10535;50.664;4.564;2024-02-21T07:03:55;9.20;99.90
20750;DHT22;10535;50.664;4.564;2024-02-21T07:06:21;9.40;99.90
20750;DHT22;10535;50.664;4.564;2024-02-21T07:08:47;9.40;99.90
20750;DHT22;10535;50.664;4.564;2024-02-21T07:11:13;9.50;99.90
20750;DHT22;10535;50.664;4.564;2024-02-21T07:13:38;9.50;99.90
20750;DHT22;10535;50.664;4.564;2024-02-21T07:16:05;9.50;99.90
20750;DHT22;10535;50.664;4.564;2024-02-21T07:18:31;9.40;99.90
20750;DHT22;10535;50.664;4.564;2024-02-21T07:20:56;9.40;99.90
20750;DHT22;10535;50.664;4.564;2024-02-21T07:23:22;9.40;99.90
20750;DHT22;10535;50.664;4.564;2024-02-21T07:25:47;9.40;99.90
20750;DHT22;10535;50.664;4.564;2024-02-21T07:28:14;9.50;99.90
20750;DHT22;10535;50.664;4.564;2024-02-21T07:30:50;9.50;99.90
20750;DHT22;10535;50.664;4.564;2024-02-21T07:33:17;9.50;99.90
20750;DHT22;10535;50.664;4.564;2024-02-21T07:35:42;9.60;99.90
20750;DHT22;10535;50.664;4.564;2024-02-21T07:38:11;9.60;99.90
20750;DHT22;10535;50.664;4.564;2024-02-21T07:40:58;9.50;99.90
20750;DHT22;10535;50.664;4.564;2024-02-21T07:43:24;9.50;99.90
20750;DHT22;10535;50.664;4.564;2024-02-21T07:45:52;9.60;99.90
20750;DHT22;10535;50.664;4.564;2024-02-21T07:48:20;9.70;99.90
20750;DHT22;10535;50.664;4.564;2024-02-21T07:50:46;9.70;99.90
20750;DHT22;10535;50.664;4.564;2024-02-21T07:53:11;9.60;99.90
20750;DHT22;10535;50.664;4.564;2024-02-21T07:55:37;9.70;99.90
20750;DHT22;10535;50.664;4.564;2024-02-21T07:58:04;9.80;99.90
20750;DHT22;10535;50.664;4.564;2024-02-21T08:00:30;9.80;99.90
20750;DHT22;10535;50.664;4.564;2024-02-21T08:02:55;9.90;99.90
20750;DHT22;10535;50.664;4.564;2024-02-21T08:05:21;9.70;99.90
20750;DHT22;10535;50.664;4.564;2024-02-21T08:07:48;9.70;99.90
20750;DHT22;10535;50.664;4.564;2024-02-21T08:10:14;9.70;99.90
20750;DHT22;10535;50.664;4.564;2024-02-21T08:12:39;9.70;99.90
20750;DHT22;10535;50.664;4.564;2024-02-21T08:15:05;9.70;99.90
20750;DHT22;10535;50.664;4.564;2024-02-21T08:17:33;9.70;99.90
20750;DHT22;10535;50.664;4.564;2024-02-21T08:19:59;9.70;99.90
20750;DHT22;10535;50.664;4.564;2024-02-21T08:22:24;9.80;99.90
20750;DHT22;10535;50.664;4.564;2024-02-21T08:24:50;9.90;99.90
20750;DHT22;10535;50.664;4.564;2024-02-21T08:27:16;9.90;99.90
20750;DHT22;10535;50.664;4.564;2024-02-21T08:29:44;9.90;99.90
20750;DHT22;10535;50.664;4.564;2024-02-21T08:32:12;9.80;99.90
20750;DHT22;10535;50.664;4.564;2024-02-21T08:34:38;9.90;99.90
20750;DHT22;10535;50.664;4.564;2024-02-21T08:37:05;9.90;99.90
20750;DHT22;10535;50.664;4.564;2024-02-21T08:39:30;9.70;99.90
20750;DHT22;10535;50.664;4.564;2024-02-21T08:41:56;9.90;99.90
20750;DHT22;10535;50.664;4.564;2024-02-21T08:44:23;9.90;99.90
20750;DHT22;10535;50.664;4.564;2024-02-21T08:46:49;10.00;99.90
20750;DHT22;10535;50.664;4.564;2024-02-21T08:49:15;10.00;99.90
20750;DHT22;10535;50.664;4.564;2024-02-21T08:51:40;9.80;99.90
20750;DHT22;10535;50.664;4.564;2024-02-21T08:54:06;9.80;99.90
20750;DHT22;10535;50.664;4.564;2024-02-21T08:56:32;9.90;99.90
20750;DHT22;10535;50.664;4.564;2024-02-21T08:58:58;10.10;99.90
20750;DHT22;10535;50.664;4.564;2024-02-21T09:01:23;10.20;99.90
20750;DHT22;10535;50.664;4.564;2024-02-21T09:03:49;10.10;99.90
20750;DHT22;10535;50.664;4.564;2024-02-21T09:06:19;10.10;99.90
20750;DHT22;10535;50.664;4.564;2024-02-21T09:08:45;10.20;99.90
20750;DHT22;10535;50.664;4.564;2024-02-21T09:11:11;10.20;99.90
20750;DHT22;10535;50.664;4.564;2024-02-21T09:13:36;10.30;99.90
20750;DHT22;10535;50.664;4.564;2024-02-21T09:16:02;10.30;99.90
20750;DHT22;10535;50.664;4.564;2024-02-21T09:18:29;10.40;99.90
20750;DHT22;10535;50.664;4.564;2024-02-21T09:20:55;10.50;99.90
20750;DHT22;10535;50.664;4.564;2024-02-21T09:23:23;10.60;99.90
20750;DHT22;10535;50.664;4.564;2024-02-21T09:25:49;10.50;99.90
20750;DHT22;10535;50.664;4.564;2024-02-21T09:28:14;10.70;99.90
20750;DHT22;10535;50.664;4.564;2024-02-21T09:30:40;10.70;99.90
20750;DHT22;10535;50.664;4.564;2024-02-21T09:33:05;10.60;99.90
20750;DHT22;10535;50.664;4.564;2024-02-21T09:35:32;10.60;99.90
20750;DHT22;10535;50.664;4.564;2024-02-21T09:37:59;10.50;99.90
20750;DHT22;10535;50.664;4.564;2024-02-21T09:40:25;10.50;99.90
20750;DHT22;10535;50.664;4.564;2024-02-21T09:43:02;10.60;99.90
20750;DHT22;10535;50.664;4.564;2024-02-21T09:45:29;10.70;99.90
20750;DHT22;10535;50.664;4.564;2024-02-21T09:50:45;10.60;99.90
20750;DHT22;10535;50.664;4.564;2024-02-21T09:53:12;10.60;99.90
20750;DHT22;10535;50.664;4.564;2024-02-21T09:55:43;10.70;99.90
20750;DHT22;10535;50.664;4.564;2024-02-21T09:58:09;10.60;99.90
20750;DHT22;10535;50.664;4.564;2024-02-21T10:00:38;10.80;99.90
20750;DHT22;10535;50.664;4.564;2024-02-21T10:03:03;10.90;99.90
20750;DHT22;10535;50.664;4.564;2024-02-21T10:05:36;11.00;99.90
20750;DHT22;10535;50.664;4.564;2024-02-21T10:08:03;11.00;99.90
20750;DHT22;10535;50.664;4.564;2024-02-21T10:10:28;11.20;99.90
20750;DHT22;10535;50.664;4.564;2024-02-21T10:12:55;11.20;99.90
20750;DHT22;10535;50.664;4.564;2024-02-21T10:15:22;11.30;99.90
20750;DHT22;10535;50.664;4.564;2024-02-21T10:17:49;11.30;99.90
20750;DHT22;10535;50.664;4.564;2024-02-21T10:20:15;11.20;99.90
20750;DHT22;10535;50.664;4.564;2024-02-21T10:22:42;11.30;99.90
20750;DHT22;10535;50.664;4.564;2024-02-21T10:25:11;11.30;99.90
20750;DHT22;10535;50.664;4.564;2024-02-21T10:27:38;11.40;99.90
20750;DHT22;10535;50.664;4.564;2024-02-21T10:30:06;11.50;99.90
20750;DHT22;10535;50.664;4.564;2024-02-21T10:32:33;11.50;99.90
20750;DHT22;10535;50.664;4.564;2024-02-21T10:35:03;11.50;99.90
20750;DHT22;10535;50.664;4.564;2024-02-21T10:37:30;11.50;99.90
20750;DHT22;10535;50.664;4.564;2024-02-21T10:39:57;11.50;99.90
20750;DHT22;10535;50.664;4.564;2024-02-21T10:42:23;11.50;99.90
20750;DHT22;10535;50.664;4.564;2024-02-21T10:44:53;11.50;99.90
20750;DHT22;10535;50.664;4.564;2024-02-21T10:47:22;11.50;99.90
20750;DHT22;10535;50.664;4.564;2024-02-21T10:49:54;11.50;99.90
20750;DHT22;10535;50.664;4.564;2024-02-21T10:55:03;11.60;99.90
20750;DHT22;10535;50.664;4.564;2024-02-21T10:57:29;11.80;99.90
20750;DHT22;10535;50.664;4.564;2024-02-21T10:59:59;11.80;99.90
20750;DHT22;10535;50.664;4.564;2024-02-21T11:02:26;11.80;99.90
20750;DHT22;10535;50.664;4.564;2024-02-21T11:04:55;11.70;99.90
20750;DHT22;10535;50.664;4.564;2024-02-21T11:07:20;11.90;99.90
20750;DHT22;10535;50.664;4.564;2024-02-21T11:09:53;12.00;99.90
20750;DHT22;10535;50.664;4.564;2024-02-21T11:12:21;11.90;99.90
20750;DHT22;10535;50.664;4.564;2024-02-21T11:14:47;11.80;99.90
20750;DHT22;10535;50.664;4.564;2024-02-21T11:17:20;11.90;99.90
20750;DHT22;10535;50.664;4.564;2024-02-21T11:19:52;12.00;99.90
20750;DHT22;10535;50.664;4.564;2024-02-21T11:22:18;11.90;99.90
20750;DHT22;10535;50.664;4.564;2024-02-21T11:24:45;12.00;99.90
20750;DHT22;10535;50.664;4.564;2024-02-21T11:29:43;12.20;99.90
20750;DHT22;10535;50.664;4.564;2024-02-21T11:32:14;12.30;99.90
20750;DHT22;10535;50.664;4.564;2024-02-21T11:34:41;12.20;99.90
20750;DHT22;10535;50.664;4.564;2024-02-21T11:37:13;12.30;99.90
20750;DHT22;10535;50.664;4.564;2024-02-21T11:39:42;12.20;99.90
20750;DHT22;10535;50.664;4.564;2024-02-21T11:42:09;12.20;99.90
20750;DHT22;10535;50.664;4.564;2024-02-21T11:44:35;12.10;99.90
20750;DHT22;10535;50.664;4.564;2024-02-21T11:47:03;12.10;99.90
20750;DHT22;10535;50.664;4.564;2024-02-21T11:49:30;12.10;99.90
20750;DHT22;10535;50.664;4.564;2024-02-21T11:52:02;12.10;99.90
20750;DHT22;10535;50.664;4.564;2024-02-21T11:54:32;12.00;99.90
20750;DHT22;10535;50.664;4.564;2024-02-21T11:56:58;11.80;99.90
20750;DHT22;10535;50.664;4.564;2024-02-21T11:59:23;12.00;99.90
20750;DHT22;10535;50.664;4.564;2024-02-21T12:01:49;12.00;99.90
20750;DHT22;10535;50.664;4.564;2024-02-21T12:04:17;11.90;99.90
20750;DHT22;10535;50.664;4.564;2024-02-21T12:06:45;11.90;99.90
20750;DHT22;10535;50.664;4.564;2024-02-21T12:09:16;11.90;99.90
20750;DHT22;10535;50.664;4.564;2024-02-21T12:11:45;11.80;99.90
20750;DHT22;10535;50.664;4.564;2024-02-21T12:14:16;11.90;99.90
20750;DHT22;10535;50.664;4.564;2024-02-21T12:16:42;11.80;99.90
20750;DHT22;10535;50.664;4.564;2024-02-21T12:19:13;11.90;99.90
20750;DHT22;10535;50.664;4.564;2024-02-21T12:21:39;12.00;99.90
20750;DHT22;10535;50.664;4.564;2024-02-21T12:24:17;12.10;99.90
20750;DHT22;10535;50.664;4.564;2024-02-21T12:26:46;12.10;99.90
20750;DHT22;10535;50.664;4.564;2024-02-21T12:29:11;12.00;99.90
20750;DHT22;10535;50.664;4.564;2024-02-21T12:31:40;11.90;99.90
20750;DHT22;10535;50.664;4.564;2024-02-21T12:34:06;11.80;99.90
20750;DHT22;10535;50.664;4.564;2024-02-21T12:36:32;11.90;99.90
20750;DHT22;10535;50.664;4.564;2024-02-21T12:39:01;11.90;99.90
20750;DHT22;10535;50.664;4.564;2024-02-21T12:41:28;12.20;99.90
20750;DHT22;10535;50.664;4.564;2024-02-21T12:43:55;12.20;99.90
20750;DHT22;10535;50.664;4.564;2024-02-21T12:46:22;12.30;99.90
20750;DHT22;10535;50.664;4.564;2024-02-21T12:48:47;12.50;99.90
20750;DHT22;10535;50.664;4.564;2024-02-21T12:51:13;12.60;99.90
20750;DHT22;10535;50.664;4.564;2024-02-21T12:53:39;12.40;99.90
20750;DHT22;10535;50.664;4.564;2024-02-21T12:56:05;12.40;99.90
20750;DHT22;10535;50.664;4.564;2024-02-21T12:58:32;12.40;99.90
20750;DHT22;10535;50.664;4.564;2024-02-21T13:00:58;12.30;99.90
20750;DHT22;10535;50.664;4.564;2024-02-21T13:03:24;12.20;99.90
20750;DHT22;10535;50.664;4.564;2024-02-21T13:05:49;12.00;99.90
20750;DHT22;10535;50.664;4.564;2024-02-21T13:08:15;11.90;99.90
20750;DHT22;10535;50.664;4.564;2024-02-21T13:10:41;12.00;99.90
20750;DHT22;10535;50.664;4.564;2024-02-21T13:13:06;11.90;99.90
20750;DHT22;10535;50.664;4.564;2024-02-21T13:15:32;12.10;99.90
20750;DHT22;10535;50.664;4.564;2024-02-21T13:17:58;12.10;99.90
20750;DHT22;10535;50.664;4.564;2024-02-21T13:20:25;12.10;99.90
20750;DHT22;10535;50.664;4.564;2024-02-21T13:22:52;12.20;99.90
20750;DHT22;10535;50.664;4.564;2024-02-21T13:25:18;12.10;99.90
20750;DHT22;10535;50.664;4.564;2024-02-21T13:27:46;11.90;99.90
20750;DHT22;10535;50.664;4.564;2024-02-21T13:30:12;11.90;99.90
20750;DHT22;10535;50.664;4.564;2024-02-21T13:32:41;12.00;99.90
20750;DHT22;10535;50.664;4.564;2024-02-21T13:35:08;12.00;99.90
20750;DHT22;10535;50.664;4.564;2024-02-21T13:37:34;12.00;99.90
20750;DHT22;10535;50.664;4.564;2024-02-21T13:40:00;12.00;99.90
20750;DHT22;10535;50.664;4.564;2024-02-21T13:42:25;11.90;99.90
20750;DHT22;10535;50.664;4.564;2024-02-21T13:44:53;11.90;99.90
20750;DHT22;10535;50.664;4.564;2024-02-21T13:47:18;11.80;99.90
20750;DHT22;10535;50.664;4.564;2024-02-21T13:49:44;11.70;99.90
20750;DHT22;10535;50.664;4.564;2024-02-21T13:52:10;11.70;99.90
20750;DHT22;10535;50.664;4.564;2024-02-21T13:54:35;11.70;99.90
20750;DHT22;10535;50.664;4.564;2024-02-21T13:57:01;11.70;99.90
20750;DHT22;10535;50.664;4.564;2024-02-21T13:59:28;11.80;99.90
20750;DHT22;10535;50.664;4.564;2024-02-21T14:01:53;11.70;99.90
20750;DHT22;10535;50.664;4.564;2024-02-21T14:04:19;11.70;99.90
20750;DHT22;10535;50.664;4.564;2024-02-21T14:06:45;11.70;99.90
20750;DHT22;10535;50.664;4.564;2024-02-21T14:09:11;11.70;99.90
20750;DHT22;10535;50.664;4.564;2024-02-21T14:11:37;11.60;99.90
20750;DHT22;10535;50.664;4.564;2024-02-21T14:14:04;11.60;99.90
20750;DHT22;10535;50.664;4.564;2024-02-21T14:16:30;11.50;99.90
20750;DHT22;10535;50.664;4.564;2024-02-21T14:18:56;11.40;99.90
20750;DHT22;10535;50.664;4.564;2024-02-21T14:21:21;11.20;99.90
20750;DHT22;10535;50.664;4.564;2024-02-21T14:23:47;11.20;99.90
20750;DHT22;10535;50.664;4.564;2024-02-21T14:26:13;11.20;99.90
20750;DHT22;10535;50.664;4.564;2024-02-21T14:28:39;11.10;99.90
20750;DHT22;10535;50.664;4.564;2024-02-21T14:31:06;11.10;99.90
20750;DHT22;10535;50.664;4.564;2024-02-21T14:33:34;11.10;99.90
20750;DHT22;10535;50.664;4.564;2024-02-21T14:36:00;11.00;99.90
20750;DHT22;10535;50.664;4.564;2024-02-21T14:38:26;11.00;99.90
20750;DHT22;10535;50.664;4.564;2024-02-21T14:40:52;10.90;99.90
20750;DHT22;10535;50.664;4.564;2024-02-21T14:43:18;10.90;99.90
20750;DHT22;10535;50.664;4.564;2024-02-21T14:45:47;10.90;99.90
20750;DHT22;10535;50.664;4.564;2024-02-21T14:48:15;10.90;99.90
20750;DHT22;10535;50.664;4.564;2024-02-21T14:50:41;10.90;99.90
20750;DHT22;10535;50.664;4.564;2024-02-21T14:53:08;11.00;99.90
20750;DHT22;10535;50.664;4.564;2024-02-21T14:55:34;10.90;99.90
20750;DHT22;10535;50.664;4.564;2024-02-21T14:58:00;10.80;99.90
20750;DHT22;10535;50.664;4.564;2024-02-21T15:00:26;10.70;99.90
20750;DHT22;10535;50.664;4.564;2024-02-21T15:02:57;10.70;99.90
20750;DHT22;10535;50.664;4.564;2024-02-21T15:05:23;10.50;99.90
20750;DHT22;10535;50.664;4.564;2024-02-21T15:07:48;10.40;99.90
20750;DHT22;10535;50.664;4.564;2024-02-21T15:10:14;10.50;99.90
20750;DHT22;10535;50.664;4.564;2024-02-21T15:12:40;10.50;99.90
20750;DHT22;10535;50.664;4.564;2024-02-21T15:15:06;10.50;99.90
20750;DHT22;10535;50.664;4.564;2024-02-21T15:17:34;10.40;99.90
20750;DHT22;10535;50.664;4.564;2024-02-21T15:19:59;10.30;99.90
20750;DHT22;10535;50.664;4.564;2024-02-21T15:22:26;10.20;99.90
20750;DHT22;10535;50.664;4.564;2024-02-21T15:24:53;10.20;99.90
20750;DHT22;10535;50.664;4.564;2024-02-21T15:27:18;10.30;99.90
20750;DHT22;10535;50.664;4.564;2024-02-21T15:29:44;10.10;99.90
20750;DHT22;10535;50.664;4.564;2024-02-21T15:32:10;10.20;99.90
20750;DHT22;10535;50.664;4.564;2024-02-21T15:34:36;10.10;99.90
20750;DHT22;10535;50.664;4.564;2024-02-21T15:37:01;10.10;99.90
20750;DHT22;10535;50.664;4.564;2024-02-21T15:39:29;10.00;99.90
20750;DHT22;10535;50.664;4.564;2024-02-21T15:41:55;9.90;99.90
20750;DHT22;10535;50.664;4.564;2024-02-21T15:44:24;10.00;99.90
20750;DHT22;10535;50.664;4.564;2024-02-21T15:46:50;9.90;99.90